createdAt,value
2023-04-23T00:01:05.581Z,86.20
2023-04-23T00:04:35.492Z,86.20
2023-04-23T00:07:04.362Z,87.00
2023-04-23T00:09:33.323Z,87.70
2023-04-23T00:12:02.038Z,88.70
2023-04-23T00:14:32.056Z,89.90
2023-04-23T00:17:00.168Z,90.10
2023-04-23T00:19:28.093Z,90.30
2023-04-23T00:21:55.944Z,90.70
2023-04-23T00:24:23.860Z,91.20
2023-04-23T00:26:53.031Z,91.20
2023-04-23T00:29:20.907Z,91.30
2023-04-23T00:31:50.216Z,92.90
2023-04-23T00:34:18.379Z,94.80
2023-04-23T00:36:46.630Z,95.90
2023-04-23T00:39:14.585Z,98.10
2023-04-23T00:41:44.372Z,99.50
2023-04-23T00:44:13.200Z,99.90
2023-04-23T00:46:41.180Z,99.90
2023-04-23T00:49:10.554Z,99.90
2023-04-23T00:51:38.489Z,99.90
2023-04-23T00:54:07.318Z,99.90
2023-04-23T00:56:35.824Z,99.90
2023-04-23T00:59:04.214Z,99.90
2023-04-23T01:01:33.363Z,99.90
2023-04-23T01:04:01.574Z,99.90
2023-04-23T01:06:31.829Z,99.90
2023-04-23T01:09:00.274Z,99.90
2023-04-23T01:11:28.425Z,99.90
2023-04-23T01:13:57.465Z,99.90
2023-04-23T01:16:28.605Z,99.90
2023-04-23T01:18:56.834Z,99.90
2023-04-23T01:21:26.333Z,99.90
2023-04-23T01:23:55.589Z,99.90
2023-04-23T01:26:25.274Z,99.90
2023-04-23T01:28:54.027Z,99.90
2023-04-23T01:31:22.704Z,99.90
2023-04-23T01:33:52.131Z,99.90
2023-04-23T01:36:20.673Z,99.90
2023-04-23T01:38:48.906Z,99.90
2023-04-23T01:41:18.414Z,99.90
2023-04-23T01:43:47.097Z,99.90
2023-04-23T01:46:15.348Z,99.90
2023-04-23T01:48:43.575Z,99.90
2023-04-23T01:51:11.520Z,99.90
2023-04-23T01:53:39.642Z,99.90
2023-04-23T01:56:09.837Z,99.90
2023-04-23T01:58:39.135Z,99.90
2023-04-23T02:01:07.206Z,99.90
2023-04-23T02:03:35.733Z,99.90
2023-04-23T02:06:05.090Z,99.90
2023-04-23T02:08:33.054Z,99.90
2023-04-23T02:11:00.932Z,99.90
2023-04-23T02:13:28.875Z,99.90
2023-04-23T02:15:58.088Z,99.90
2023-04-23T02:18:26.062Z,99.90
2023-04-23T02:20:54.899Z,99.90
2023-04-23T02:23:22.956Z,99.90
2023-04-23T02:25:51.146Z,99.90
2023-04-23T02:28:19.169Z,99.90
2023-04-23T02:30:48.033Z,99.90
2023-04-23T02:33:19.655Z,99.90
2023-04-23T02:35:47.682Z,99.90
2023-04-23T02:38:15.537Z,99.90
2023-04-23T02:40:43.745Z,99.90
2023-04-23T02:43:11.879Z,99.90
2023-04-23T02:45:39.940Z,99.90
2023-04-23T02:48:07.865Z,99.90
2023-04-23T02:50:39.082Z,99.90
2023-04-23T02:53:07.134Z,99.90
2023-04-23T02:55:35.172Z,99.90
2023-04-23T02:58:03.112Z,99.90
2023-04-23T03:00:32.536Z,99.90
2023-04-23T03:03:00.808Z,99.90
2023-04-23T03:05:29.065Z,99.90
2023-04-23T03:07:58.399Z,99.90
2023-04-23T03:10:27.298Z,99.90
2023-04-23T03:12:56.427Z,99.90
2023-04-23T03:15:24.747Z,99.90
2023-04-23T03:17:53.839Z,99.90
2023-04-23T03:20:21.795Z,99.90
2023-04-23T03:22:49.765Z,99.90
2023-04-23T03:25:20.420Z,99.90
2023-04-23T03:27:48.336Z,99.90
2023-04-23T03:30:16.392Z,99.90
2023-04-23T03:32:44.571Z,99.90
2023-04-23T03:35:13.393Z,99.90
2023-04-23T03:37:45.560Z,99.90
2023-04-23T03:40:15.721Z,99.90
2023-04-23T03:42:47.720Z,99.90
2023-04-23T03:45:17.775Z,99.90
2023-04-23T03:47:46.166Z,99.90
2023-04-23T03:50:14.706Z,99.90
2023-04-23T03:52:45.073Z,99.90
2023-04-23T03:55:23.329Z,99.90
2023-04-23T03:57:52.849Z,99.90
2023-04-23T04:00:24.418Z,99.90
2023-04-23T04:02:52.511Z,99.90
2023-04-23T04:05:23.078Z,99.90
2023-04-23T04:07:51.051Z,99.90
2023-04-23T04:10:19.052Z,99.90
2023-04-23T04:12:47.954Z,99.90
2023-04-23T04:15:20.380Z,99.90
2023-04-23T04:17:49.095Z,99.90
2023-04-23T04:20:17.003Z,99.90
2023-04-23T04:22:44.884Z,99.90
2023-04-23T04:25:13.248Z,99.90
2023-04-23T04:27:42.202Z,99.90
2023-04-23T04:30:11.264Z,99.90
2023-04-23T04:32:42.176Z,99.90
2023-04-23T04:35:10.483Z,99.90
2023-04-23T04:37:38.413Z,99.90
2023-04-23T04:40:08.080Z,99.90
2023-04-23T04:42:36.301Z,99.90
2023-04-23T04:45:04.841Z,99.90
2023-04-23T04:47:33.105Z,99.90
2023-04-23T04:50:02.332Z,99.90
2023-04-23T04:52:30.361Z,99.90
2023-04-23T04:54:58.196Z,99.90
2023-04-23T04:57:26.145Z,99.90
2023-04-23T04:59:54.050Z,99.90
2023-04-23T05:02:23.429Z,99.90
2023-04-23T05:04:51.444Z,99.90
2023-04-23T05:07:21.043Z,99.90
2023-04-23T05:09:48.889Z,99.90
2023-04-23T05:12:16.704Z,99.90
2023-04-23T05:14:44.563Z,99.90
2023-04-23T05:17:13.101Z,99.90
2023-04-23T05:19:40.947Z,99.90
2023-04-23T05:22:08.907Z,99.90
2023-04-23T05:24:38.099Z,99.90
2023-04-23T05:27:06.197Z,99.90
2023-04-23T05:29:34.077Z,99.90
2023-04-23T05:32:02.041Z,99.90
2023-04-23T05:34:29.962Z,99.90
2023-04-23T05:36:57.925Z,99.90
2023-04-23T05:39:26.405Z,99.90
2023-04-23T05:41:56.348Z,99.90
2023-04-23T05:44:24.797Z,99.90
2023-04-23T05:46:52.646Z,99.90
2023-04-23T05:49:20.506Z,99.90
2023-04-23T05:51:48.461Z,99.90
2023-04-23T05:54:16.335Z,99.90
2023-04-23T05:56:44.422Z,99.90
2023-04-23T05:59:13.840Z,99.90
2023-04-23T06:01:41.997Z,99.90
2023-04-23T06:04:10.053Z,99.90
2023-04-23T06:06:38.079Z,99.90
2023-04-23T06:09:06.948Z,99.90
2023-04-23T06:11:36.066Z,99.90
2023-04-23T06:14:04.556Z,99.90
2023-04-23T06:16:34.094Z,99.90
2023-04-23T06:19:01.933Z,99.90
2023-04-23T06:21:29.771Z,99.90
2023-04-23T06:23:57.759Z,99.90
2023-04-23T06:26:25.667Z,99.90
2023-04-23T06:28:57.177Z,99.90
2023-04-23T06:31:31.341Z,99.90
2023-04-23T06:34:01.270Z,99.90
2023-04-23T06:36:29.186Z,99.90
2023-04-23T06:38:57.018Z,99.90
2023-04-23T06:41:25.028Z,99.90
2023-04-23T06:44:06.153Z,99.90
2023-04-23T06:46:37.489Z,99.90
2023-04-23T06:49:06.718Z,99.90
2023-04-23T06:51:35.981Z,99.90
2023-04-23T06:54:03.820Z,99.90
2023-04-23T06:56:31.735Z,99.90
2023-04-23T06:58:59.587Z,99.90
2023-04-23T07:01:27.742Z,99.90
2023-04-23T07:03:55.709Z,99.90
2023-04-23T07:06:24.930Z,99.90
2023-04-23T07:08:52.775Z,99.90
2023-04-23T07:11:20.631Z,99.90
2023-04-23T07:13:48.470Z,99.90
2023-04-23T07:16:16.662Z,99.90
2023-04-23T07:18:44.469Z,99.90
2023-04-23T07:21:12.445Z,99.90
2023-04-23T07:23:41.791Z,99.90
2023-04-23T07:26:09.666Z,99.90
2023-04-23T07:28:37.486Z,99.90
2023-04-23T07:31:05.385Z,99.90
2023-04-23T07:33:33.291Z,99.90
2023-04-23T07:36:01.200Z,99.90
2023-04-23T07:38:29.077Z,99.90
2023-04-23T07:40:58.355Z,99.90
2023-04-23T07:43:26.312Z,99.90
2023-04-23T07:45:54.212Z,99.90
2023-04-23T07:48:22.112Z,99.90
2023-04-23T07:50:50.031Z,99.90
2023-04-23T07:53:18.207Z,99.90
2023-04-23T07:55:46.391Z,99.90
2023-04-23T07:58:15.671Z,99.90
2023-04-23T08:00:43.855Z,99.90
2023-04-23T08:03:11.865Z,99.90
2023-04-23T08:05:41.313Z,99.90
2023-04-23T08:08:09.626Z,99.90
2023-04-23T08:10:37.557Z,99.90
2023-04-23T08:13:05.715Z,99.90
2023-04-23T08:15:34.964Z,99.90
2023-04-23T08:18:02.843Z,99.90
2023-04-23T08:20:32.132Z,99.90
2023-04-23T08:23:00.093Z,99.90
2023-04-23T08:25:27.959Z,99.90
2023-04-23T08:27:55.881Z,99.90
2023-04-23T08:30:23.806Z,99.90
2023-04-23T08:32:54.690Z,99.90
2023-04-23T08:35:23.242Z,99.90
2023-04-23T08:37:51.396Z,99.90
2023-04-23T08:40:19.753Z,99.90
2023-04-23T08:42:51.924Z,99.90
2023-04-23T08:45:20.642Z,99.90
2023-04-23T08:47:48.919Z,99.90
2023-04-23T08:50:20.270Z,99.90
2023-04-23T08:52:50.732Z,99.90
2023-04-23T08:55:19.615Z,99.90
2023-04-23T08:57:48.637Z,99.90
2023-04-23T09:00:18.862Z,99.90
2023-04-23T09:02:49.011Z,99.90
2023-04-23T09:05:19.326Z,99.90
2023-04-23T09:07:47.254Z,99.90
2023-04-23T09:10:18.264Z,99.90
2023-04-23T09:12:48.397Z,99.90
2023-04-23T09:15:16.637Z,99.90
2023-04-23T09:17:48.325Z,99.90
2023-04-23T09:20:18.042Z,99.90
2023-04-23T09:22:47.991Z,99.90
2023-04-23T09:25:18.101Z,99.90
2023-04-23T09:27:46.637Z,99.90
2023-04-23T09:30:15.802Z,99.90
2023-04-23T09:32:46.288Z,99.90
2023-04-23T09:35:16.192Z,99.90
2023-04-23T09:37:48.637Z,99.90
2023-04-23T09:40:17.908Z,99.90
2023-04-23T09:42:50.087Z,99.90
2023-04-23T09:45:18.361Z,99.90
2023-04-23T09:47:51.210Z,99.90
2023-04-23T09:50:19.466Z,99.90
2023-04-23T09:52:57.096Z,99.90
2023-04-23T09:55:35.579Z,99.90
2023-04-23T09:58:05.298Z,99.90
2023-04-23T10:00:38.114Z,99.90
2023-04-23T10:03:07.842Z,99.90
2023-04-23T10:05:59.726Z,99.90
2023-04-23T10:08:30.166Z,99.90
2023-04-23T10:11:10.028Z,99.90
2023-04-23T10:13:46.393Z,99.90
2023-04-23T10:16:22.241Z,99.90
2023-04-23T10:18:54.092Z,99.90
2023-04-23T10:21:26.815Z,99.90
2023-04-23T10:23:58.002Z,99.90
2023-04-23T10:26:26.970Z,99.90
2023-04-23T10:28:56.456Z,99.90
2023-04-23T10:31:25.474Z,99.90
2023-04-23T10:33:58.368Z,99.90
2023-04-23T10:36:30.513Z,99.90
2023-04-23T10:39:04.120Z,99.90
2023-04-23T10:41:37.373Z,99.90
2023-04-23T10:44:05.891Z,99.90
2023-04-23T10:46:37.955Z,99.90
2023-04-23T10:49:09.047Z,99.90
2023-04-23T10:54:11.182Z,99.90
2023-04-23T10:56:39.923Z,99.90
2023-04-23T10:59:09.524Z,99.90
2023-04-23T11:02:39.553Z,99.90
2023-04-23T11:05:10.401Z,99.90
2023-04-23T11:07:39.373Z,99.90
2023-04-23T11:10:14.907Z,99.90
2023-04-23T11:12:42.926Z,99.90
2023-04-23T11:15:15.051Z,99.90
2023-04-23T11:18:03.139Z,99.90
2023-04-23T11:20:31.173Z,99.90
2023-04-23T11:22:59.164Z,99.90
2023-04-23T11:25:30.539Z,99.90
2023-04-23T11:27:59.514Z,99.90
2023-04-23T11:30:29.685Z,99.90
2023-04-23T11:32:59.972Z,99.90
2023-04-23T11:35:29.386Z,99.90
2023-04-23T11:37:57.788Z,99.90
2023-04-23T11:40:25.843Z,99.50
2023-04-23T11:42:55.882Z,99.90
2023-04-23T11:45:25.256Z,99.90
2023-04-23T11:47:56.178Z,99.60
2023-04-23T11:50:25.864Z,98.30
2023-04-23T11:52:53.815Z,99.10
2023-04-23T11:55:22.398Z,99.30
2023-04-23T11:57:51.647Z,98.70
2023-04-23T12:00:22.947Z,97.00
2023-04-23T12:02:55.859Z,96.70
2023-04-23T12:05:25.158Z,96.60
2023-04-23T12:07:53.136Z,96.20
2023-04-23T12:10:22.909Z,96.00
2023-04-23T12:12:52.714Z,96.50
2023-04-23T12:15:22.242Z,96.80
2023-04-23T12:17:52.106Z,95.70
2023-04-23T12:20:21.437Z,96.30
2023-04-23T12:22:49.689Z,95.40
2023-04-23T12:25:17.612Z,94.30
2023-04-23T12:27:46.147Z,94.10
2023-04-23T12:30:14.996Z,94.20
2023-04-23T12:32:44.993Z,94.50
2023-04-23T12:35:14.102Z,95.30
2023-04-23T12:37:42.017Z,94.30
2023-04-23T12:40:11.099Z,94.50
2023-04-23T12:42:38.995Z,95.30
2023-04-23T12:45:09.498Z,94.50
2023-04-23T12:47:37.580Z,94.40
2023-04-23T12:50:08.522Z,94.70
2023-04-23T12:52:36.664Z,95.30
2023-04-23T12:55:05.191Z,95.80
2023-04-23T12:57:33.190Z,95.80
2023-04-23T13:00:01.055Z,95.70
2023-04-23T13:02:29.080Z,95.50
2023-04-23T13:05:01.280Z,94.60
2023-04-23T13:07:30.995Z,93.70
2023-04-23T13:09:59.659Z,94.20
2023-04-23T13:12:27.923Z,93.10
2023-04-23T13:14:55.959Z,94.10
2023-04-23T13:17:26.175Z,95.60
2023-04-23T13:19:54.390Z,95.60
2023-04-23T13:22:28.273Z,95.20
2023-04-23T13:24:58.226Z,95.80
2023-04-23T13:27:26.878Z,95.90
2023-04-23T13:29:54.908Z,95.10
2023-04-23T13:32:23.699Z,94.30
2023-04-23T13:34:51.903Z,94.60
2023-04-23T13:37:19.762Z,92.40
2023-04-23T13:39:47.784Z,93.90
2023-04-23T13:42:17.295Z,94.40
2023-04-23T13:44:45.182Z,94.10
2023-04-23T13:47:13.043Z,93.40
2023-04-23T13:49:41.153Z,93.60
2023-04-23T13:52:09.177Z,94.20
2023-04-23T13:54:37.100Z,94.10
2023-04-23T13:57:05.375Z,94.50
2023-04-23T13:59:34.844Z,93.60
2023-04-23T14:02:02.677Z,93.80
2023-04-23T14:04:30.668Z,93.60
2023-04-23T14:06:58.546Z,93.40
2023-04-23T14:09:26.616Z,93.50
2023-04-23T14:11:54.763Z,93.70
2023-04-23T14:14:22.665Z,95.00
2023-04-23T14:16:52.659Z,94.70
2023-04-23T14:19:20.661Z,93.90
2023-04-23T14:21:48.589Z,94.20
2023-04-23T14:24:23.138Z,93.10
2023-04-23T14:26:51.067Z,93.30
2023-04-23T14:29:24.343Z,92.80
2023-04-23T14:31:54.110Z,92.80
2023-04-23T14:34:22.330Z,93.10
2023-04-23T14:36:52.752Z,93.90
2023-04-23T14:39:20.799Z,94.00
2023-04-23T14:41:48.633Z,92.10
2023-04-23T14:44:16.552Z,92.90
2023-04-23T14:46:44.443Z,93.50
2023-04-23T14:49:14.335Z,92.80
2023-04-23T14:51:42.694Z,92.40
2023-04-23T14:54:10.778Z,92.10
2023-04-23T14:56:38.740Z,92.30
2023-04-23T14:59:06.655Z,93.20
2023-04-23T15:01:34.566Z,94.00
2023-04-23T15:04:02.667Z,93.70
2023-04-23T15:06:32.430Z,94.50
2023-04-23T15:09:00.395Z,94.20
2023-04-23T15:11:28.389Z,95.40
2023-04-23T15:14:04.812Z,96.20
2023-04-23T15:19:07.252Z,94.80
2023-04-23T15:21:36.596Z,96.90
2023-04-23T15:24:04.907Z,96.40
2023-04-23T15:26:33.831Z,96.60
2023-04-23T15:29:03.069Z,96.70
2023-04-23T15:31:31.192Z,96.50
2023-04-23T15:33:59.212Z,96.30
2023-04-23T15:36:27.170Z,97.00
2023-04-23T15:38:56.518Z,97.00
2023-04-23T15:41:24.354Z,97.90
2023-04-23T15:43:53.784Z,97.20
2023-04-23T15:46:21.862Z,97.70
2023-04-23T15:48:49.758Z,98.40
2023-04-23T15:51:17.976Z,98.20
2023-04-23T15:53:45.999Z,98.80
2023-04-23T15:56:15.291Z,99.90
2023-04-23T15:58:43.356Z,99.90
2023-04-23T16:01:11.448Z,99.90
2023-04-23T16:03:39.861Z,99.90
2023-04-23T16:06:09.449Z,99.90
2023-04-23T16:08:38.463Z,99.90
2023-04-23T16:11:08.869Z,99.90
2023-04-23T16:13:38.197Z,99.90
2023-04-23T16:16:06.457Z,99.90
2023-04-23T16:18:34.414Z,99.90
2023-04-23T16:21:02.457Z,99.90
2023-04-23T16:23:30.544Z,99.90
2023-04-23T16:25:58.535Z,99.90
2023-04-23T16:28:26.523Z,99.90
2023-04-23T16:30:56.674Z,99.90
2023-04-23T16:33:25.735Z,99.90
2023-04-23T16:35:53.654Z,99.90
2023-04-23T16:38:21.521Z,99.90
2023-04-23T16:40:50.322Z,99.90
2023-04-23T16:43:18.244Z,99.90
2023-04-23T16:45:46.450Z,99.90
2023-04-23T16:48:16.725Z,99.90
2023-04-23T16:50:44.689Z,99.90
2023-04-23T16:53:13.463Z,99.90
2023-04-23T16:55:41.425Z,99.90
2023-04-23T16:58:10.109Z,99.90
2023-04-23T17:00:37.996Z,99.90
2023-04-23T17:03:06.077Z,99.90
2023-04-23T17:05:40.149Z,99.90
2023-04-23T17:08:08.127Z,99.90
2023-04-23T17:10:36.066Z,99.90
2023-04-23T17:13:04.004Z,99.90
2023-04-23T17:15:32.255Z,99.90
2023-04-23T17:18:00.123Z,99.90
2023-04-23T17:20:28.998Z,99.90
2023-04-23T17:22:58.458Z,99.90
2023-04-23T17:25:26.295Z,99.90
2023-04-23T17:27:54.585Z,99.90
2023-04-23T17:30:24.416Z,99.90
2023-04-23T17:32:52.373Z,99.90
2023-04-23T17:35:20.410Z,99.90
2023-04-23T17:37:48.551Z,99.90
2023-04-23T17:40:18.265Z,99.90
2023-04-23T17:42:46.309Z,99.90
2023-04-23T17:45:14.163Z,99.90
2023-04-23T17:47:42.073Z,99.90
2023-04-23T17:50:11.739Z,99.90
2023-04-23T17:52:40.277Z,99.90
2023-04-23T17:55:09.403Z,99.90
2023-04-23T17:57:38.701Z,99.90
2023-04-23T18:00:10.045Z,99.90
2023-04-23T18:02:41.409Z,99.90
2023-04-23T18:05:10.005Z,99.90
2023-04-23T18:07:38.513Z,99.90
2023-04-23T18:10:09.327Z,99.90
2023-04-23T18:12:38.920Z,99.90
2023-04-23T18:15:08.712Z,99.90
2023-04-23T18:17:36.619Z,99.90
2023-04-23T18:20:06.253Z,99.90
2023-04-23T18:22:34.398Z,99.90
2023-04-23T18:25:02.501Z,99.90
2023-04-23T18:27:33.444Z,99.90
2023-04-23T18:30:05.609Z,99.90
2023-04-23T18:32:40.697Z,99.90
2023-04-23T18:35:10.066Z,99.90
2023-04-23T18:37:42.818Z,99.90
2023-04-23T18:40:11.494Z,99.90
2023-04-23T18:42:39.723Z,99.90
2023-04-23T18:45:10.758Z,99.90
2023-04-23T18:47:44.121Z,99.90
2023-04-23T18:50:36.291Z,99.90
2023-04-23T18:53:04.288Z,99.90
2023-04-23T18:55:34.896Z,99.90
2023-04-23T18:58:02.965Z,99.90
2023-04-23T19:00:32.484Z,99.90
2023-04-23T19:03:02.769Z,99.90
2023-04-23T19:05:34.693Z,99.90
2023-04-23T19:08:03.375Z,99.90
2023-04-23T19:10:31.535Z,99.90
2023-04-23T19:12:59.777Z,99.90
2023-04-23T19:15:27.658Z,99.90
2023-04-23T19:17:57.023Z,99.90
2023-04-23T19:20:24.919Z,99.90
2023-04-23T19:22:52.787Z,99.90
2023-04-23T19:25:20.875Z,99.90
2023-04-23T19:27:48.981Z,99.90
2023-04-23T19:30:16.961Z,99.90
2023-04-23T19:32:45.105Z,99.90
2023-04-23T19:35:14.346Z,99.90
2023-04-23T19:37:42.401Z,99.90
2023-04-23T19:40:11.188Z,99.90
2023-04-23T19:42:39.056Z,99.90
2023-04-23T19:45:07.767Z,99.90
2023-04-23T19:47:38.740Z,99.90
2023-04-23T19:50:07.541Z,99.90
2023-04-23T19:52:37.591Z,99.90
2023-04-23T19:55:07.381Z,99.90
2023-04-23T19:57:35.581Z,99.90
2023-04-23T20:00:04.358Z,99.90
2023-04-23T20:02:34.422Z,99.90
2023-04-23T20:05:03.200Z,99.90
2023-04-23T20:07:31.295Z,99.90
2023-04-23T20:10:00.842Z,99.90
2023-04-23T20:12:29.940Z,99.90
2023-04-23T20:14:58.824Z,99.90
2023-04-23T20:17:29.578Z,99.90
2023-04-23T20:20:01.561Z,99.90
2023-04-23T20:22:29.767Z,99.90
2023-04-23T20:24:59.219Z,99.90
2023-04-23T20:27:28.976Z,99.90
2023-04-23T20:29:57.217Z,99.90
2023-04-23T20:32:25.055Z,99.90
2023-04-23T20:34:53.326Z,99.90
2023-04-23T20:37:21.821Z,99.90
2023-04-23T20:39:50.049Z,99.90
2023-04-23T20:42:18.160Z,99.90
2023-04-23T20:44:48.975Z,99.90
2023-04-23T20:47:17.875Z,99.90
2023-04-23T20:49:45.991Z,99.90
2023-04-23T20:52:15.247Z,99.90
2023-04-23T20:54:43.186Z,99.90
2023-04-23T20:57:11.643Z,99.90
2023-04-23T20:59:39.911Z,99.90
2023-04-23T21:02:12.917Z,99.90
2023-04-23T21:04:41.090Z,99.90
2023-04-23T21:07:09.115Z,99.90
2023-04-23T21:09:36.998Z,99.90
2023-04-23T21:12:05.277Z,99.90
2023-04-23T21:14:34.319Z,99.90
2023-04-23T21:17:02.146Z,99.90
2023-04-23T21:19:31.412Z,99.90
2023-04-23T21:21:59.335Z,99.90
2023-04-23T21:24:27.293Z,99.90
2023-04-23T21:26:55.231Z,99.90
2023-04-23T21:29:23.130Z,99.90
2023-04-23T21:31:52.721Z,99.90
2023-04-23T21:34:21.387Z,99.90
2023-04-23T21:36:50.784Z,99.90
2023-04-23T21:39:18.645Z,99.90
2023-04-23T21:41:47.212Z,99.90
2023-04-23T21:44:15.127Z,99.90
2023-04-23T21:46:44.449Z,99.90
2023-04-23T21:49:13.180Z,99.90
2023-04-23T21:51:41.132Z,99.90
2023-04-23T21:54:10.731Z,99.90
2023-04-23T21:56:39.003Z,99.90
2023-04-23T21:59:06.846Z,99.90
2023-04-23T22:01:36.645Z,99.90
2023-04-23T22:04:05.135Z,99.90
2023-04-23T22:06:34.336Z,99.90
2023-04-23T22:09:02.570Z,99.90
2023-04-23T22:11:31.830Z,99.90
2023-04-23T22:14:00.167Z,99.90
2023-04-23T22:16:29.235Z,99.90
2023-04-23T22:18:58.293Z,99.90
2023-04-23T22:21:26.470Z,99.90
2023-04-23T22:23:54.408Z,99.90
2023-04-23T22:26:22.247Z,99.90
2023-04-23T22:28:51.545Z,99.90
2023-04-23T22:31:19.727Z,99.90
2023-04-23T22:33:47.720Z,99.90
2023-04-23T22:36:15.670Z,99.90
2023-04-23T22:38:43.699Z,99.90
2023-04-23T22:41:11.615Z,99.90
2023-04-23T22:43:39.532Z,99.90
2023-04-23T22:46:08.849Z,99.90
2023-04-23T22:48:37.905Z,99.90
2023-04-23T22:51:06.996Z,99.90
2023-04-23T22:53:34.862Z,99.90
2023-04-23T22:56:02.953Z,99.90
2023-04-23T22:58:31.086Z,99.90
2023-04-23T23:00:58.971Z,99.90
2023-04-23T23:03:28.402Z,99.90
2023-04-23T23:05:56.412Z,99.90
2023-04-23T23:08:24.309Z,99.90
2023-04-23T23:10:52.176Z,99.90
2023-04-23T23:13:20.328Z,99.90
2023-04-23T23:15:48.222Z,99.90
2023-04-23T23:18:16.275Z,99.90
2023-04-23T23:20:45.559Z,99.90
2023-04-23T23:23:13.634Z,99.90
2023-04-23T23:25:41.530Z,99.90
2023-04-23T23:28:09.370Z,99.90
2023-04-23T23:30:37.536Z,99.90
2023-04-23T23:33:06.260Z,99.90
2023-04-23T23:35:34.158Z,99.90
2023-04-23T23:38:03.825Z,99.90
2023-04-23T23:40:31.762Z,99.90
2023-04-23T23:42:59.700Z,99.90
2023-04-23T23:45:27.852Z,99.90
2023-04-23T23:47:56.059Z,99.90
2023-04-23T23:50:23.965Z,99.90
2023-04-23T23:52:51.880Z,99.90
2023-04-23T23:55:21.493Z,99.90
2023-04-23T23:57:49.412Z,99.90
